Decoded Metar for UDSG (SHIRAK in ARMENIA) (IATA:N/A) | Meteo·Mobile Aviation Weather
aviador You're here:

UDSG Decoded Metar

SHIRAK in ARMENIA
Report Time2018-11-12 22:00:00
UTC Time2018-11-12 22:34:29
Flight Rules vfr VFR
WindCalm
Visibility9000 m
Phenomena:N/A
Clouds:Few 049 Hf
Expected CloudBase > 1,200 ft AGL from Temp-Dew spread
CeilingNone
Temp01°C (ISA -4)
Dew Point-2°C (81% RH)
AAT-1.2°C
QNH1024 hPa
Density Alt4,226 ft
Elevation5,000 ft
Report Wrong Elevation
Raw Report
METAR UDSG 122200Z 00000KT 9000 FEW049 01/M02 Q1024 R02/CLRD70 NOSIG=

Extra information for UDSG:More info

Metar Taf Metar & Taf Last 4 Metars F.Rules Stats Wind Profile Meteogram Temp Stats Airport Information Weather charts Add Link Nearby VenuesMetar ALERT Operation Metar Decoded Social comments